createdAt,value
2022-11-29T00:00:16.565Z,3.60
2022-11-29T00:03:18.584Z,3.57
2022-11-29T00:06:27.590Z,4.30
2022-11-29T00:09:29.434Z,4.80
2022-11-29T00:12:31.509Z,3.93
2022-11-29T00:15:36.952Z,4.50
2022-11-29T00:18:38.903Z,4.70
2022-11-29T00:21:40.780Z,4.47
2022-11-29T00:24:43.385Z,4.50
2022-11-29T00:27:45.558Z,4.20
2022-11-29T00:30:47.544Z,4.13
2022-11-29T00:33:50.302Z,3.47
2022-11-29T00:36:52.529Z,3.17
2022-11-29T00:39:54.516Z,2.97
2022-11-29T00:42:56.430Z,3.03
2022-11-29T00:45:58.450Z,3.63
2022-11-29T00:49:00.398Z,3.50
2022-11-29T00:52:02.412Z,4.27
2022-11-29T00:55:04.594Z,3.57
2022-11-29T01:02:29.237Z,4.00
2022-11-29T01:05:31.856Z,4.07
2022-11-29T01:08:34.062Z,3.93
2022-11-29T01:11:36.134Z,4.57
2022-11-29T01:14:38.158Z,3.57
2022-11-29T01:17:40.506Z,4.33
2022-11-29T01:20:42.528Z,4.00
2022-11-29T01:23:46.261Z,4.30
2022-11-29T01:26:48.252Z,4.43
2022-11-29T01:29:50.363Z,4.47
2022-11-29T01:32:52.326Z,4.33
2022-11-29T01:35:55.322Z,4.30
2022-11-29T01:39:00.576Z,4.40
2022-11-29T01:42:03.201Z,4.33
2022-11-29T01:45:21.868Z,4.37
2022-11-29T01:48:26.718Z,3.70
2022-11-29T01:51:29.581Z,4.33
2022-11-29T01:54:32.862Z,3.87
2022-11-29T01:57:36.160Z,4.07
2022-11-29T02:00:38.061Z,3.87
2022-11-29T02:03:40.181Z,3.67
2022-11-29T02:06:42.283Z,4.23
2022-11-29T02:09:44.521Z,3.77
2022-11-29T02:12:55.603Z,3.37
2022-11-29T02:16:24.255Z,4.40
2022-11-29T02:19:41.284Z,3.53
2022-11-29T02:22:55.844Z,4.03
2022-11-29T02:26:25.392Z,3.70
2022-11-29T02:29:42.510Z,3.87
2022-11-29T02:33:06.481Z,3.77
2022-11-29T02:36:30.424Z,3.70
2022-11-29T02:39:50.311Z,3.20
2022-11-29T02:43:08.281Z,3.53
2022-11-29T02:46:34.958Z,3.40
2022-11-29T02:49:43.020Z,3.33
2022-11-29T02:53:01.921Z,3.40
2022-11-29T02:56:12.781Z,3.40
2022-11-29T02:59:33.424Z,3.30
2022-11-29T03:03:02.641Z,3.43
2022-11-29T03:06:30.902Z,3.90
2022-11-29T03:09:40.725Z,3.50
2022-11-29T03:12:46.511Z,3.70
2022-11-29T03:15:59.472Z,3.23
2022-11-29T03:19:10.431Z,3.70
2022-11-29T03:22:13.811Z,3.53
2022-11-29T03:25:57.162Z,3.37
2022-11-29T03:29:25.362Z,3.90
2022-11-29T03:32:42.805Z,3.27
2022-11-29T03:35:54.801Z,3.57
2022-11-29T03:39:01.323Z,3.97
2022-11-29T03:42:11.662Z,4.30
2022-11-29T03:45:26.481Z,3.97
2022-11-29T03:48:33.831Z,4.90
2022-11-29T03:51:59.118Z,3.70
2022-11-29T03:55:20.541Z,4.43
2022-11-29T03:58:35.121Z,4.20
2022-11-29T04:01:49.105Z,4.47
2022-11-29T04:05:09.340Z,5.03
2022-11-29T04:08:37.461Z,4.93
2022-11-29T04:12:07.220Z,4.50
2022-11-29T04:15:21.121Z,4.43
2022-11-29T04:18:47.560Z,4.90
2022-11-29T04:22:11.133Z,4.80
2022-11-29T04:25:27.282Z,4.20
2022-11-29T04:28:53.791Z,3.90
2022-11-29T04:32:23.828Z,4.37
2022-11-29T04:35:52.210Z,4.87
2022-11-29T04:39:03.342Z,4.13
2022-11-29T04:43:02.470Z,4.70
2022-11-29T04:46:43.257Z,4.80
2022-11-29T04:50:19.102Z,8.10
2022-11-29T04:53:31.761Z,7.37
2022-11-29T04:56:42.100Z,7.23
2022-11-29T04:59:52.080Z,4.40
2022-11-29T05:03:03.117Z,5.27
2022-11-29T05:06:50.903Z,6.77
2022-11-29T05:10:17.591Z,4.43
2022-11-29T05:13:29.431Z,4.30
2022-11-29T05:17:06.711Z,4.80
2022-11-29T05:20:34.911Z,4.83
2022-11-29T05:23:54.292Z,4.97
2022-11-29T05:27:24.610Z,3.90
2022-11-29T05:30:40.472Z,4.93
2022-11-29T05:33:45.400Z,4.07
2022-11-29T05:36:58.692Z,4.30
2022-11-29T05:40:37.962Z,5.00
2022-11-29T05:43:49.531Z,4.43
2022-11-29T05:47:03.281Z,4.87
2022-11-29T05:50:22.481Z,4.37
2022-11-29T05:53:30.770Z,4.77
2022-11-29T05:56:45.452Z,4.50
2022-11-29T05:59:48.228Z,4.67
2022-11-29T06:03:09.540Z,4.80
2022-11-29T06:06:24.960Z,4.73
2022-11-29T06:09:31.223Z,4.53
2022-11-29T06:12:38.111Z,4.53
2022-11-29T06:16:21.896Z,4.23
2022-11-29T06:20:01.370Z,4.17
2022-11-29T06:23:18.371Z,4.20
2022-11-29T06:26:45.132Z,3.83
2022-11-29T06:29:49.972Z,4.57
2022-11-29T06:32:55.671Z,4.83
2022-11-29T06:36:13.002Z,4.17
2022-11-29T06:39:15.388Z,5.83
2022-11-29T06:42:17.400Z,5.53
2022-11-29T06:45:19.931Z,5.40
2022-11-29T06:48:27.831Z,4.70
2022-11-29T06:51:36.870Z,4.83
2022-11-29T06:55:17.500Z,4.67
2022-11-29T06:58:39.871Z,4.70
2022-11-29T07:01:47.024Z,5.23
2022-11-29T07:05:01.240Z,4.50
2022-11-29T07:08:13.162Z,5.17
2022-11-29T07:11:15.722Z,5.43
2022-11-29T07:14:18.016Z,4.70
2022-11-29T07:17:51.881Z,5.23
2022-11-29T07:21:00.282Z,5.10
2022-11-29T07:24:11.910Z,6.43
2022-11-29T07:27:21.901Z,5.70
2022-11-29T07:30:47.491Z,5.53
2022-11-29T07:34:07.570Z,6.80
2022-11-29T07:37:24.761Z,7.13
2022-11-29T07:40:37.945Z,9.30
2022-11-29T07:44:01.402Z,8.40
2022-11-29T07:47:04.284Z,7.00
2022-11-29T07:50:07.143Z,7.40
2022-11-29T07:53:16.520Z,9.67
2022-11-29T07:56:18.401Z,9.07
2022-11-29T07:59:20.821Z,8.50
2022-11-29T08:02:30.091Z,7.40
2022-11-29T08:05:32.102Z,7.27
2022-11-29T08:08:36.649Z,6.90
2022-11-29T08:11:41.443Z,6.40
2022-11-29T08:14:43.795Z,5.73
2022-11-29T08:17:46.699Z,6.40
2022-11-29T08:20:49.653Z,6.07
2022-11-29T08:23:51.881Z,5.60
2022-11-29T08:26:54.201Z,5.27
2022-11-29T08:29:56.573Z,4.63
2022-11-29T08:32:58.542Z,4.77
2022-11-29T08:36:07.614Z,4.40
2022-11-29T08:39:09.858Z,5.13
2022-11-29T08:42:12.141Z,4.77
2022-11-29T08:45:14.311Z,4.17
2022-11-29T08:48:16.271Z,6.03
2022-11-29T08:51:18.184Z,5.53
2022-11-29T08:54:20.892Z,4.40
2022-11-29T08:57:40.270Z,4.77
2022-11-29T09:00:47.440Z,5.50
2022-11-29T09:04:05.681Z,6.73
2022-11-29T09:07:08.301Z,5.47
2022-11-29T09:10:11.521Z,4.60
2022-11-29T09:13:13.571Z,5.10
2022-11-29T09:16:18.654Z,4.40
2022-11-29T09:19:20.754Z,4.43
2022-11-29T09:22:22.744Z,3.63
2022-11-29T09:25:24.754Z,3.27
2022-11-29T09:28:27.065Z,3.87
2022-11-29T09:31:31.110Z,3.60
2022-11-29T09:34:33.181Z,4.07
2022-11-29T09:37:37.183Z,4.37
2022-11-29T09:40:47.201Z,4.37
2022-11-29T09:44:34.312Z,4.50
2022-11-29T09:47:45.172Z,4.50
2022-11-29T09:51:02.392Z,3.83
2022-11-29T09:54:23.003Z,3.90
2022-11-29T09:57:27.494Z,3.57
2022-11-29T10:00:30.548Z,3.67
2022-11-29T10:03:36.899Z,3.50
2022-11-29T10:07:04.510Z,3.93
2022-11-29T10:10:09.285Z,3.77
2022-11-29T10:13:23.435Z,3.60
2022-11-29T10:17:04.708Z,3.60
2022-11-29T10:20:13.661Z,3.47
2022-11-29T10:23:39.368Z,3.47
2022-11-29T10:26:43.638Z,3.63
2022-11-29T10:29:49.294Z,4.00
2022-11-29T10:32:56.638Z,2.97
2022-11-29T10:36:00.978Z,3.40
2022-11-29T10:39:14.386Z,3.27
2022-11-29T10:42:36.062Z,3.03
2022-11-29T10:45:46.123Z,2.50
2022-11-29T10:48:47.998Z,3.00
2022-11-29T10:51:49.948Z,3.33
2022-11-29T10:54:57.480Z,3.57
2022-11-29T10:58:29.272Z,3.70
2022-11-29T11:01:33.097Z,4.67
2022-11-29T11:04:42.588Z,3.60
2022-11-29T11:07:46.491Z,3.83
2022-11-29T11:10:58.638Z,3.57
2022-11-29T11:14:27.505Z,4.90
2022-11-29T11:17:33.043Z,4.33
2022-11-29T11:20:40.911Z,4.27
2022-11-29T11:23:51.949Z,4.83
2022-11-29T11:26:54.108Z,4.70
2022-11-29T11:29:56.008Z,5.17
2022-11-29T11:33:21.876Z,4.70
2022-11-29T11:36:27.379Z,4.73
2022-11-29T11:39:29.437Z,5.00
2022-11-29T11:42:37.127Z,4.43
2022-11-29T11:45:39.218Z,5.07
2022-11-29T11:48:42.620Z,3.93
2022-11-29T11:51:44.784Z,4.97
2022-11-29T11:55:00.369Z,4.07
2022-11-29T11:58:10.367Z,4.20
2022-11-29T12:01:12.624Z,4.30
2022-11-29T12:04:31.703Z,4.83
2022-11-29T12:08:08.129Z,4.87
2022-11-29T12:11:14.076Z,5.40
2022-11-29T12:14:24.569Z,5.07
2022-11-29T12:17:47.749Z,5.80
2022-11-29T12:21:20.237Z,6.37
2022-11-29T12:24:29.361Z,5.97
2022-11-29T12:27:32.099Z,7.00
2022-11-29T12:30:34.278Z,6.63
2022-11-29T12:33:42.095Z,6.67
2022-11-29T12:37:14.565Z,7.07
2022-11-29T12:40:39.837Z,6.20
2022-11-29T12:44:00.820Z,6.27
2022-11-29T12:47:38.141Z,6.40
2022-11-29T12:51:06.044Z,7.00
2022-11-29T12:54:10.793Z,7.17
2022-11-29T12:57:31.016Z,7.13
2022-11-29T13:00:39.518Z,7.43
2022-11-29T13:04:37.210Z,8.20
2022-11-29T13:07:57.552Z,8.40
2022-11-29T13:11:06.413Z,7.83
2022-11-29T13:14:54.931Z,8.13
2022-11-29T13:18:04.338Z,7.43
2022-11-29T13:21:15.717Z,7.80
2022-11-29T13:24:25.391Z,7.63
2022-11-29T13:27:37.496Z,7.30
2022-11-29T13:30:39.912Z,8.07
2022-11-29T13:34:00.502Z,8.40
2022-11-29T13:37:16.144Z,7.67
2022-11-29T13:40:31.005Z,7.33
2022-11-29T13:43:38.870Z,7.37
2022-11-29T13:47:10.806Z,9.10
2022-11-29T13:50:44.494Z,9.70
2022-11-29T13:53:49.176Z,10.53
2022-11-29T13:57:02.378Z,10.17
2022-11-29T14:00:05.019Z,11.20
2022-11-29T14:03:22.210Z,12.00
2022-11-29T14:06:36.829Z,12.63
2022-11-29T14:09:44.399Z,12.20
2022-11-29T14:12:49.806Z,11.83
2022-11-29T14:15:57.396Z,13.47
2022-11-29T14:19:08.509Z,13.93
2022-11-29T14:22:22.529Z,14.60
2022-11-29T14:28:48.550Z,14.40
2022-11-29T14:31:52.207Z,13.80
2022-11-29T14:35:12.249Z,13.77
2022-11-29T14:38:58.438Z,13.27
2022-11-29T14:42:15.050Z,15.27
2022-11-29T14:45:33.914Z,14.83
2022-11-29T14:48:36.840Z,14.93
2022-11-29T14:51:38.854Z,15.23
2022-11-29T14:55:08.373Z,15.50
2022-11-29T14:58:19.303Z,14.87
2022-11-29T15:01:21.434Z,14.77
2022-11-29T15:04:25.907Z,14.90
2022-11-29T15:07:30.467Z,14.20
2022-11-29T15:10:37.345Z,14.13
2022-11-29T15:13:49.230Z,15.43
2022-11-29T15:16:54.172Z,18.00
2022-11-29T15:20:10.706Z,16.17
2022-11-29T15:23:18.779Z,14.17
2022-11-29T15:26:22.587Z,13.87
2022-11-29T15:29:25.353Z,13.67
2022-11-29T15:32:32.914Z,14.80
2022-11-29T15:35:36.179Z,13.90
2022-11-29T15:38:45.523Z,13.07
2022-11-29T15:41:47.465Z,13.27
2022-11-29T15:44:49.924Z,12.60
2022-11-29T15:47:52.562Z,14.03
2022-11-29T15:51:06.854Z,14.90
2022-11-29T15:54:25.536Z,14.37
2022-11-29T15:57:33.406Z,14.37
2022-11-29T16:00:35.533Z,15.37
2022-11-29T16:03:39.942Z,14.90
2022-11-29T16:06:42.993Z,17.03
2022-11-29T16:09:50.095Z,15.30
2022-11-29T16:12:58.058Z,17.03
2022-11-29T16:16:21.926Z,16.97
2022-11-29T16:19:35.558Z,17.03
2022-11-29T16:22:37.538Z,16.80
2022-11-29T16:26:19.167Z,17.10
2022-11-29T16:29:27.993Z,15.90
2022-11-29T16:32:35.439Z,16.03
2022-11-29T16:35:38.099Z,16.80
2022-11-29T16:38:51.803Z,17.40
2022-11-29T16:42:25.761Z,15.73
2022-11-29T16:45:36.113Z,17.00
2022-11-29T16:48:39.049Z,18.10
2022-11-29T16:51:48.155Z,18.40
2022-11-29T16:54:51.377Z,18.23
2022-11-29T16:57:53.333Z,17.27
2022-11-29T17:00:55.887Z,16.33
2022-11-29T17:03:59.763Z,17.07
2022-11-29T17:07:04.883Z,16.13
2022-11-29T17:10:08.938Z,16.30
2022-11-29T17:13:12.340Z,16.77
2022-11-29T17:16:16.283Z,16.27
2022-11-29T17:19:20.675Z,15.50
2022-11-29T17:22:22.625Z,17.00
2022-11-29T17:25:25.159Z,15.57
2022-11-29T17:28:27.163Z,16.20
2022-11-29T17:31:30.210Z,16.50
2022-11-29T17:34:32.242Z,15.97
2022-11-29T17:37:34.238Z,14.97
2022-11-29T17:40:38.550Z,15.60
2022-11-29T17:43:40.937Z,15.90
2022-11-29T17:46:43.123Z,16.50
2022-11-29T17:49:46.335Z,17.77
2022-11-29T17:52:48.407Z,17.23
2022-11-29T17:55:50.374Z,16.67
2022-11-29T17:58:57.199Z,17.00
2022-11-29T18:01:59.768Z,16.63
2022-11-29T18:05:01.713Z,16.97
2022-11-29T18:08:06.105Z,17.27
2022-11-29T18:11:11.208Z,17.17
2022-11-29T18:14:15.489Z,16.57
2022-11-29T18:17:17.433Z,17.70
2022-11-29T18:20:19.437Z,18.00
2022-11-29T18:23:21.359Z,19.17
2022-11-29T18:26:24.595Z,18.70
2022-11-29T18:29:26.541Z,18.50
2022-11-29T18:32:28.555Z,17.97
2022-11-29T18:35:30.964Z,18.93
2022-11-29T18:38:33.382Z,17.50
2022-11-29T18:41:35.770Z,19.73
2022-11-29T18:44:38.661Z,19.30
2022-11-29T18:47:40.522Z,18.97
2022-11-29T18:50:42.540Z,19.87
2022-11-29T18:53:45.498Z,21.17
2022-11-29T18:56:50.196Z,22.37
2022-11-29T18:59:52.126Z,23.13
2022-11-29T19:02:54.649Z,22.53
2022-11-29T19:05:56.563Z,22.10
2022-11-29T19:08:58.745Z,21.23
2022-11-29T19:12:02.590Z,22.40
2022-11-29T19:15:05.294Z,21.73
2022-11-29T19:18:07.144Z,22.10
2022-11-29T19:21:14.459Z,21.03
2022-11-29T19:24:18.573Z,22.00
2022-11-29T19:27:21.572Z,21.37
2022-11-29T19:30:23.427Z,21.83
2022-11-29T19:33:25.429Z,21.70
2022-11-29T19:36:30.944Z,23.73
2022-11-29T19:39:34.410Z,22.70
2022-11-29T19:42:37.814Z,23.13
2022-11-29T19:45:41.077Z,22.73
2022-11-29T19:48:43.619Z,22.17
2022-11-29T19:51:45.951Z,21.90
2022-11-29T19:54:47.760Z,22.03
2022-11-29T19:57:49.676Z,21.87
2022-11-29T20:00:51.560Z,22.07
2022-11-29T20:03:55.759Z,23.70
2022-11-29T20:06:58.252Z,23.63
2022-11-29T20:10:00.311Z,21.53
2022-11-29T20:13:02.206Z,26.17
2022-11-29T20:16:16.338Z,25.13
2022-11-29T20:19:18.524Z,21.87
2022-11-29T20:22:20.793Z,22.23
2022-11-29T20:25:24.788Z,24.80
2022-11-29T20:28:32.977Z,23.10
2022-11-29T20:31:44.356Z,23.70
2022-11-29T20:34:52.768Z,23.80
2022-11-29T20:37:57.415Z,25.37
2022-11-29T20:41:07.010Z,23.20
2022-11-29T20:44:17.325Z,23.67
2022-11-29T20:47:35.379Z,24.73
2022-11-29T20:50:40.758Z,22.47
2022-11-29T20:53:46.439Z,23.50
2022-11-29T20:56:48.320Z,24.10
2022-11-29T20:59:50.256Z,25.07
2022-11-29T21:02:52.381Z,24.53
2022-11-29T21:05:55.978Z,23.40
2022-11-29T21:08:57.823Z,24.43
2022-11-29T21:11:59.972Z,23.43
2022-11-29T21:15:02.096Z,23.17
2022-11-29T21:18:04.773Z,24.30
2022-11-29T21:21:44.994Z,23.67
2022-11-29T21:24:47.431Z,24.10
2022-11-29T21:27:49.754Z,23.83
2022-11-29T21:30:52.029Z,22.63
2022-11-29T21:33:54.295Z,24.87
2022-11-29T21:36:59.336Z,23.77
2022-11-29T21:40:01.274Z,23.30
2022-11-29T21:43:03.277Z,23.57
2022-11-29T21:46:05.282Z,25.07
2022-11-29T21:49:07.562Z,24.30
2022-11-29T21:52:09.459Z,23.80
2022-11-29T21:55:11.645Z,25.13
2022-11-29T21:58:13.483Z,25.00
2022-11-29T22:01:17.485Z,26.37
2022-11-29T22:04:20.234Z,25.70
2022-11-29T22:07:24.778Z,27.80
2022-11-29T22:10:28.205Z,27.00
2022-11-29T22:13:30.669Z,27.23
2022-11-29T22:16:32.665Z,26.77
2022-11-29T22:19:36.735Z,27.53
2022-11-29T22:22:38.667Z,26.70
2022-11-29T22:25:41.144Z,26.53
2022-11-29T22:28:42.996Z,27.83
2022-11-29T22:31:49.260Z,26.70
2022-11-29T22:34:51.385Z,27.23
2022-11-29T22:37:53.351Z,27.60
2022-11-29T22:41:00.090Z,26.77
2022-11-29T22:44:03.325Z,26.37
2022-11-29T22:47:05.264Z,27.60
2022-11-29T22:50:07.558Z,26.20
2022-11-29T22:53:09.813Z,28.43
2022-11-29T22:56:13.106Z,26.23
2022-11-29T22:59:14.979Z,28.73
2022-11-29T23:02:17.664Z,28.40
2022-11-29T23:05:19.500Z,27.60
2022-11-29T23:08:21.500Z,28.43
2022-11-29T23:11:26.341Z,29.43
2022-11-29T23:14:28.343Z,29.93
2022-11-29T23:17:30.195Z,29.47
2022-11-29T23:20:32.156Z,28.73
2022-11-29T23:23:35.151Z,29.20
2022-11-29T23:26:40.993Z,26.43
2022-11-29T23:29:42.844Z,26.80
2022-11-29T23:32:45.245Z,28.27
2022-11-29T23:35:48.503Z,26.43
2022-11-29T23:38:50.681Z,27.80
2022-11-29T23:41:52.589Z,25.13
2022-11-29T23:44:54.576Z,26.60
2022-11-29T23:47:56.614Z,25.93
2022-11-29T23:50:58.534Z,26.33
2022-11-29T23:54:00.975Z,24.03
2022-11-29T23:57:03.942Z,25.87
